Time;durP1;ratioP1;P1;durP2;ratioP2;P2;SDS_P1;SDS_P2;PMS_P1;PMS_P2;Temp;Humidity;BMP_temperature;BMP_pressure;BME280_temperature;BME280_humidity;BME280_pressure;Samples;Min_cycle;Max_cycle;Signal;HPM_P1;HPM_P2
2024/01/05 00:00:50;;;;;;;8.13;2.08;;;;;;;-0.56;100.00;99208.13;5067358;28;20496;-77
2024/01/05 00:03:15;;;;;;;5.00;2.40;;;;;;;-0.52;100.00;99238.34;5054698;28;20400;-77
2024/01/05 00:05:41;;;;;;;5.63;2.95;;;;;;;-0.64;100.00;99189.59;5065583;28;20028;-77
2024/01/05 00:08:06;;;;;;;3.53;2.20;;;;;;;-0.92;100.00;99092.31;5082037;28;20435;-77
2024/01/05 00:10:31;;;;;;;5.32;2.67;;;;;;;-0.86;100.00;99154.69;5065753;28;20386;-77
2024/01/05 00:12:57;;;;;;;3.67;2.03;;;;;;;-0.95;100.00;99089.97;5046877;28;20431;-77
2024/01/05 00:15:22;;;;;;;5.22;2.00;;;;;;;-0.92;100.00;99060.88;5079078;28;20471;-77
2024/01/05 00:17:47;;;;;;;;;;;;;;;-1.00;100.00;99078.25;5068335;28;20036;-77
2024/01/05 00:20:13;;;;;;;4.68;2.53;;;;;;;-0.90;100.00;99132.31;5067549;28;20271;-77
2024/01/05 00:22:38;;;;;;;2.90;1.80;;;;;;;-0.83;100.00;99184.22;5047262;28;20036;-77
2024/01/05 00:25:04;;;;;;;;;;;;;;;-1.02;100.00;99130.75;5067164;28;20058;-77
2024/01/05 00:27:30;;;;;;;3.63;2.03;;;;;;;-1.25;100.00;99079.47;5050878;28;19912;-77
2024/01/05 00:29:56;;;;;;;3.22;1.80;;;;;;;-1.03;100.00;99189.34;5067399;28;20282;-77
2024/01/05 00:32:21;;;;;;;4.07;2.13;;;;;;;-1.22;100.00;99124.53;5067469;28;20529;-77
2024/01/05 00:34:46;;;;;;;;;;;;;;;-1.16;100.00;99146.78;5067347;28;20043;-76
2024/01/05 00:37:12;;;;;;;3.47;2.17;;;;;;;-1.02;100.00;99209.34;5067431;28;20263;-77
2024/01/05 00:39:37;;;;;;;;;;;;;;;-0.89;100.00;99251.91;5085806;28;20116;-77
2024/01/05 00:42:04;;;;;;;;;;;;;;;-0.94;100.00;99233.09;5067771;28;20371;-77
2024/01/05 00:44:29;;;;;;;3.08;2.17;;;;;;;-0.89;100.00;99272.88;5085111;28;19912;-77
2024/01/05 00:46:55;;;;;;;2.95;1.95;;;;;;;-0.96;100.00;99242.91;5067408;28;20039;-77
2024/01/05 00:49:20;;;;;;;5.43;2.42;;;;;;;-0.88;100.00;99279.78;5085134;28;20114;-77
2024/01/05 00:51:45;;;;;;;;;;;;;;;-1.06;100.00;99221.00;5049656;28;20216;-77
2024/01/05 00:54:11;;;;;;;4.87;2.30;;;;;;;-1.13;100.00;99196.28;5088715;28;20013;-77
2024/01/05 00:56:36;;;;;;;6.22;2.15;;;;;;;-1.08;100.00;99212.44;5070936;28;20118;-77
2024/01/05 00:59:02;;;;;;;5.78;2.50;;;;;;;-0.95;100.00;99249.78;5088943;28;20157;-77
2024/01/05 01:01:27;;;;;;;3.80;2.50;;;;;;;-1.01;100.00;99216.22;5054295;28;20024;-77
2024/01/05 01:03:53;;;;;;;;;;;;;;;-1.03;100.00;99196.34;5070617;28;20473;-77
2024/01/05 01:06:18;;;;;;;6.72;3.13;;;;;;;-1.34;100.00;99107.22;5088849;28;19907;-77
2024/01/05 01:08:43;;;;;;;4.93;2.33;;;;;;;-1.17;100.00;99223.66;5070686;28;20462;-76
2024/01/05 01:11:13;;;;;;;3.95;2.42;;;;;;;-0.98;100.00;99297.22;5068059;28;20569;-77
2024/01/05 01:13:38;;;;;;;5.22;2.55;;;;;;;-1.38;100.00;99221.00;5069620;28;20032;-77
2024/01/05 01:16:04;;;;;;;3.22;2.45;;;;;;;-1.26;100.00;99314.31;5070363;28;20475;-76
2024/01/05 01:18:29;;;;;;;6.47;2.88;;;;;;;-1.28;100.00;99308.34;5088450;28;20036;-76
2024/01/05 01:20:54;;;;;;;;;;;;;;;-1.17;100.00;99346.75;5070643;28;20060;-77
2024/01/05 01:23:20;;;;;;;3.53;2.47;;;;;;;-1.15;100.00;99371.06;5067483;28;19908;-77
2024/01/05 01:25:45;;;;;;;4.95;2.45;;;;;;;-0.94;100.00;99429.59;5062842;28;20398;-77
2024/01/05 01:28:10;;;;;;;;;;;;;;;-0.96;100.00;99422.81;5083267;28;20287;-77
2024/01/05 01:30:36;;;;;;;4.73;2.83;;;;;;;-0.89;100.00;99437.97;5063809;28;20465;-77
2024/01/05 01:33:01;;;;;;;6.35;2.83;;;;;;;-1.38;100.00;99292.53;5051970;28;20064;-77
2024/01/05 01:35:26;;;;;;;;;;;;;;;-1.07;100.00;99434.16;5083442;28;20511;-77
2024/01/05 01:37:52;;;;;;;7.47;3.13;;;;;;;-1.07;100.00;99449.88;5070051;28;19918;-77
2024/01/05 01:40:18;;;;;;;;;;;;;;;-1.42;100.00;99351.34;5088709;28;20027;-77
2024/01/05 01:42:45;;;;;;;8.70;3.80;;;;;;;-1.22;100.00;99458.91;5070062;28;19956;-77
2024/01/05 01:45:11;;;;;;;5.07;2.78;;;;;;;-1.03;100.00;99524.66;5087854;28;20035;-77
2024/01/05 01:47:36;;;;;;;;;;;;;;;-1.07;100.00;99524.06;5088606;28;20984;-76
2024/01/05 01:50:02;;;;;;;5.80;3.63;;;;;;;-1.09;100.00;99528.56;5087905;28;19994;-77
2024/01/05 01:52:28;;;;;;;;;;;;;;;-1.02;100.00;99552.53;5070171;28;20032;-76
2024/01/05 01:54:53;;;;;;;;;;;;;;;-0.83;100.00;99587.78;5070037;28;19954;-77
2024/01/05 01:57:18;;;;;;;;;;;;;;;-0.92;100.00;99540.38;5050155;28;19921;-77
2024/01/05 01:59:44;;;;;;;6.15;3.53;;;;;;;-0.83;100.00;99545.88;5069608;28;19916;-76
2024/01/05 02:02:10;;;;;;;;;;;;;;;-1.04;100.00;99504.66;5088093;28;20053;-77
2024/01/05 02:04:36;;;;;;;;;;;;;;;-0.91;100.00;99556.94;5088028;28;20282;-77
2024/01/05 02:07:01;;;;;;;7.32;3.38;;;;;;;-0.89;100.00;99568.13;5087178;28;19916;-77
2024/01/05 02:09:27;;;;;;;5.43;2.42;;;;;;;-0.97;100.00;99544.31;5068761;28;20552;-77
2024/01/05 02:11:53;;;;;;;;;;;;;;;-1.11;100.00;99516.56;5051098;28;20036;-77
2024/01/05 02:14:18;;;;;;;4.70;2.47;;;;;;;-1.10;100.00;99539.16;5068663;28;20366;-76
2024/01/05 02:16:43;;;;;;;4.47;2.80;;;;;;;-0.98;100.00;99568.84;5086537;28;20031;-76
2024/01/05 02:19:09;;;;;;;7.40;2.90;;;;;;;-0.83;100.00;99614.00;5068784;28;20028;-77
2024/01/05 02:21:38;;;;;;;;;;;;;;;-0.76;100.00;99613.41;5087995;28;20493;-77
2024/01/05 02:24:04;;;;;;;4.65;2.13;;;;;;;-0.83;100.00;99575.53;5086972;28;19912;-77
2024/01/05 02:26:29;;;;;;;;;;;;;;;-0.84;100.00;99571.25;5067495;28;20024;-76
2024/01/05 02:28:55;;;;;;;5.25;2.85;;;;;;;-0.80;100.00;99592.78;5069002;28;20370;-77
2024/01/05 02:31:20;;;;;;;6.82;2.95;;;;;;;-0.85;100.00;99595.75;5087231;28;20471;-77
2024/01/05 02:33:45;;;;;;;6.28;3.42;;;;;;;-0.81;100.00;99599.81;5068609;28;20471;-76
2024/01/05 02:36:11;;;;;;;;;;;;;;;-0.82;100.00;99573.72;5069209;28;20964;-77
2024/01/05 02:38:36;;;;;;;6.17;2.70;;;;;;;-0.84;100.00;99571.25;5068863;28;19916;-77
2024/01/05 02:41:01;;;;;;;8.65;4.00;;;;;;;-0.67;100.00;99611.88;5086906;28;20379;-77
2024/01/05 02:43:27;;;;;;;8.48;3.13;;;;;;;-0.65;100.00;99623.06;5068428;28;20059;-77
2024/01/05 02:45:52;;;;;;;5.25;3.35;;;;;;;-0.64;100.00;99624.72;5068992;28;20043;-76
2024/01/05 02:48:17;;;;;;;;;;;;;;;-0.73;100.00;99583.50;5069356;28;20283;-77
2024/01/05 02:50:43;;;;;;;2.93;1.97;;;;;;;-0.53;100.00;99626.53;5052006;28;20010;-76
2024/01/05 02:53:08;;;;;;;3.25;2.05;;;;;;;-0.53;100.00;99611.63;5051383;28;20043;-77
2024/01/05 02:55:33;;;;;;;4.53;2.60;;;;;;;-0.50;100.00;99608.75;5068736;28;20106;-77
2024/01/05 02:58:02;;;;;;;4.55;2.42;;;;;;;-0.70;100.00;99547.41;5068521;28;20143;-77
2024/01/05 03:00:27;;;;;;;4.57;2.17;;;;;;;-0.61;100.00;99577.28;5046552;28;20123;-77
2024/01/05 03:02:52;;;;;;;4.30;2.53;;;;;;;-0.61;100.00;99572.06;5065378;28;20162;-76
2024/01/05 03:05:18;;;;;;;2.85;1.92;;;;;;;-0.55;100.00;99600.44;5086645;28;20035;-77
2024/01/05 03:07:43;;;;;;;5.88;2.70;;;;;;;-0.56;100.00;99590.91;5060922;28;20121;-77
2024/01/05 03:10:09;;;;;;;7.50;3.10;;;;;;;-0.53;100.00;99611.63;5067464;28;20148;-77
2024/01/05 03:12:34;;;;;;;4.15;2.55;;;;;;;-0.47;100.00;99640.00;5044552;28;20035;-77
2024/01/05 03:14:59;;;;;;;4.97;2.38;;;;;;;-0.75;100.00;99609.84;5083245;28;20086;-77
2024/01/05 03:17:25;;;;;;;6.10;3.38;;;;;;;-0.62;100.00;99709.34;5067897;28;20032;-77
2024/01/05 03:19:50;;;;;;;5.07;2.92;;;;;;;-0.52;100.00;99749.63;5067732;28;20028;-77
2024/01/05 03:22:34;;;;;;;5.97;2.85;;;;;;;-0.60;100.00;99752.00;5086182;28;20093;-76
2024/01/05 03:25:18;;;;;;;5.88;3.20;;;;;;;-0.64;100.00;99780.22;5070579;28;20038;-77
2024/01/05 03:28:02;;;;;;;5.10;3.13;;;;;;;-0.66;100.00;99802.28;5085961;28;20054;-77
2024/01/05 03:30:46;;;;;;;8.43;4.15;;;;;;;-0.99;100.00;99755.81;5070801;28;20418;-77
2024/01/05 03:33:29;;;;;;;6.88;3.25;;;;;;;-0.74;100.00;99828.22;5070366;28;20043;-77
2024/01/05 03:36:13;;;;;;;7.88;3.47;;;;;;;-0.65;100.00;99827.56;5085750;28;20042;-77
2024/01/05 03:38:39;;;;;;;9.32;5.13;;;;;;;-0.78;100.00;99809.25;5067815;28;20111;-76
2024/01/05 03:41:04;;;;;;;5.55;3.35;;;;;;;-0.63;100.00;99836.16;5085493;28;20084;-77
2024/01/05 03:43:30;;;;;;;5.70;3.78;;;;;;;-0.54;100.00;99851.19;5050389;28;20479;-77
2024/01/05 03:45:55;;;;;;;8.20;4.60;;;;;;;-0.53;100.00;99839.75;5085200;28;20032;-77
2024/01/05 03:48:20;;;;;;;6.50;3.78;;;;;;;-0.52;100.00;99844.03;5067244;28;20043;-77
2024/01/05 03:50:46;;;;;;;7.22;3.83;;;;;;;-0.73;100.00;99814.16;5085459;28;20031;-77
2024/01/05 03:53:11;;;;;;;6.55;3.90;;;;;;;-0.73;100.00;99846.44;5066651;28;20071;-77
2024/01/05 03:55:37;;;;;;;8.07;3.85;;;;;;;-0.73;100.00;99856.94;5085282;28;20024;-77
2024/01/05 03:58:02;;;;;;;10.18;4.43;;;;;;;-0.64;100.00;99866.75;5066777;28;20035;-77
2024/01/05 04:00:27;;;;;;;6.47;3.88;;;;;;;-0.67;100.00;99866.16;5067141;28;20135;-77
2024/01/05 04:02:53;;;;;;;8.73;4.47;;;;;;;-0.48;100.00;99897.09;5066536;28;20040;-77
2024/01/05 04:05:18;;;;;;;11.88;5.32;;;;;;;-0.48;100.00;99887.44;5085120;28;20055;-77
2024/01/05 04:07:43;;;;;;;13.05;5.93;;;;;;;-0.39;100.00;99895.59;5085445;28;20065;-77
2024/01/05 04:10:09;;;;;;;8.98;5.15;;;;;;;-0.44;100.00;99888.06;5067052;28;20039;-76
2024/01/05 04:12:34;;;;;;;7.70;4.47;;;;;;;-0.51;100.00;99885.06;5066585;28;20031;-77
2024/01/05 04:15:00;;;;;;;11.98;4.50;;;;;;;-0.63;100.00;99878.09;5048056;28;20024;-77
2024/01/05 04:17:25;;;;;;;9.38;5.20;;;;;;;-0.91;100.00;99869.59;5066991;28;20028;-77
2024/01/05 04:19:50;;;;;;;10.30;5.25;;;;;;;-0.58;100.00;99938.91;5066994;28;20094;-77
2024/01/05 04:22:16;;;;;;;11.07;5.95;;;;;;;-0.76;100.00;99903.50;5084967;28;20406;-77
2024/01/05 04:24:41;;;;;;;8.32;4.60;;;;;;;-0.72;100.00;99915.47;5050018;28;20884;-77
2024/01/05 04:27:06;;;;;;;;;;;;;;;-0.43;100.00;99942.19;5067889;28;20458;-77
2024/01/05 04:29:32;;;;;;;10.03;4.80;;;;;;;-0.71;100.00;99901.41;5064755;28;20355;-77
2024/01/05 04:31:57;;;;;;;8.48;4.53;;;;;;;-0.60;100.00;99917.19;5087661;28;20024;-77
2024/01/05 04:34:22;;;;;;;;;;;;;;;-0.50;100.00;99918.19;5070745;28;20032;-77
2024/01/05 04:36:48;;;;;;;13.10;5.90;;;;;;;-0.49;100.00;99908.56;5070746;28;20370;-77
2024/01/05 04:39:13;;;;;;;9.75;4.80;;;;;;;-0.74;100.00;99885.91;5088466;28;20035;-76
2024/01/05 04:41:38;;;;;;;12.02;4.65;;;;;;;-0.59;100.00;99910.97;5088766;28;20028;-77
2024/01/05 04:44:04;;;;;;;11.38;5.13;;;;;;;-0.55;100.00;99907.19;5088062;28;20036;-77
2024/01/05 04:46:29;;;;;;;12.75;5.35;;;;;;;-0.30;100.00;99931.66;5080383;28;20372;-77
2024/01/05 04:48:55;;;;;;;13.88;5.35;;;;;;;-0.41;100.00;99884.38;5070311;28;20392;-76
2024/01/05 04:51:21;;;;;;;11.13;5.50;;;;;;;-0.30;100.00;99894.91;5088532;28;20055;-77
2024/01/05 04:53:48;;;;;;;;;;;;;;;-0.50;100.00;99850.00;5070303;28;20028;-77
2024/01/05 04:56:14;;;;;;;9.60;4.82;;;;;;;-0.64;100.00;99823.97;5053499;28;20366;-77
2024/01/05 04:58:39;;;;;;;;;;;;;;;-0.59;100.00;99840.19;5070886;28;20035;-77
2024/01/05 05:01:05;;;;;;;6.73;3.70;;;;;;;-0.53;100.00;99836.28;5051648;28;20699;-77
2024/01/05 05:03:30;;;;;;;9.80;4.47;;;;;;;-0.40;100.00;99851.94;5088448;28;20807;-77
2024/01/05 05:05:56;;;;;;;8.82;4.38;;;;;;;-0.34;100.00;99849.72;5088274;28;20074;-77
2024/01/05 05:08:21;;;;;;;10.85;5.53;;;;;;;-0.60;100.00;99786.09;5088463;28;20081;-76
2024/01/05 05:10:47;;;;;;;;;;;;;;;-0.37;100.00;99828.13;5070391;28;20024;-77
2024/01/05 05:13:12;;;;;;;6.55;3.28;;;;;;;-0.38;100.00;99813.34;5052648;28;19915;-77
2024/01/05 05:15:38;;;;;;;8.95;3.83;;;;;;;-0.49;100.00;99786.13;5063391;28;20095;-78
2024/01/05 05:18:04;;;;;;;10.80;4.30;;;;;;;-0.41;100.00;99814.41;5084212;28;20425;-75
2024/01/05 05:20:29;;;;;;;12.48;4.97;;;;;;;-0.32;100.00;99811.09;5080755;28;20020;-75
2024/01/05 05:22:54;;;;;;;;;;;;;;;-0.29;100.00;99796.91;5069705;28;20028;-75
2024/01/05 05:25:19;;;;;;;7.80;3.23;;;;;;;-0.40;100.00;99768.03;5052651;28;19917;-75
2024/01/05 05:27:45;;;;;;;6.00;3.53;;;;;;;-0.44;100.00;99754.31;5083534;28;20051;-75
2024/01/05 05:30:10;;;;;;;;;;;;;;;-0.60;100.00;99738.91;5085044;28;20480;-75
2024/01/05 05:32:36;;;;;;;7.80;4.22;;;;;;;-0.62;100.00;99748.66;5083155;28;20301;-75
2024/01/05 05:35:01;;;;;;;;;;;;;;;-0.47;100.00;99786.00;5050695;28;20074;-75
2024/01/05 05:37:26;;;;;;;5.87;2.90;;;;;;;-0.61;100.00;99752.94;5052342;28;20052;-75
2024/01/05 05:39:52;;;;;;;10.57;4.32;;;;;;;-0.61;100.00;99752.13;5069361;28;20429;-74
2024/01/05 05:42:17;;;;;;;7.78;4.00;;;;;;;-0.50;100.00;99788.88;5087364;28;20125;-76
2024/01/05 05:44:42;;;;;;;6.72;3.78;;;;;;;-0.55;100.00;99773.47;5069247;28;20097;-76
2024/01/05 05:47:09;;;;;;;6.82;4.18;;;;;;;-0.61;100.00;99776.53;5069238;28;20036;-75
2024/01/05 05:49:34;;;;;;;6.95;3.65;;;;;;;-0.70;100.00;99766.78;5069167;28;20077;-75
2024/01/05 05:51:59;;;;;;;8.48;3.58;;;;;;;-0.59;100.00;99779.88;5087122;28;20032;-75
2024/01/05 05:54:25;;;;;;;8.73;3.13;;;;;;;-0.52;100.00;99765.38;5087103;28;20107;-75
2024/01/05 05:56:50;;;;;;;7.28;3.72;;;;;;;-0.68;100.00;99718.53;5068717;28;20391;-75
2024/01/05 05:59:16;;;;;;;5.78;3.75;;;;;;;-0.62;100.00;99711.97;5068893;28;20036;-75
2024/01/05 06:01:41;;;;;;;;;;;;;;;-0.58;100.00;99708.16;5052480;28;20127;-75
2024/01/05 06:04:07;;;;;;;7.63;3.00;;;;;;;-0.52;100.00;99689.31;5051748;28;19915;-75
2024/01/05 06:06:33;;;;;;;9.88;3.88;;;;;;;-0.50;100.00;99674.31;5052389;28;20811;-76
2024/01/05 06:08:59;;;;;;;5.65;2.67;;;;;;;-0.37;100.00;99662.91;5052193;28;20117;-75
2024/01/05 06:11:26;;;;;;;5.18;3.00;;;;;;;-0.47;100.00;99626.91;5087108;28;20026;-75
2024/01/05 06:13:52;;;;;;;4.50;2.05;;;;;;;-0.49;100.00;99623.56;5067439;28;20072;-75
2024/01/05 06:16:17;;;;;;;;;;;;;;;-0.38;100.00;99619.25;5068874;28;20184;-76
2024/01/05 06:18:43;;;;;;;5.97;2.80;;;;;;;-0.52;100.00;99586.25;5085354;28;19916;-76
2024/01/05 06:21:08;;;;;;;8.52;3.38;;;;;;;-0.49;100.00;99589.47;5058992;28;20738;-76
2024/01/05 06:23:34;;;;;;;3.60;2.40;;;;;;;-0.49;100.00;99586.84;5068678;28;20035;-76
2024/01/05 06:25:59;;;;;;;5.47;2.63;;;;;;;-0.46;100.00;99585.78;5069121;28;20046;-76
2024/01/05 06:28:24;;;;;;;;;;;;;;;-0.42;100.00;99560.97;5069570;28;20016;-75
2024/01/05 06:30:50;;;;;;;8.93;2.77;;;;;;;-0.39;100.00;99559.91;5068704;28;20008;-76
2024/01/05 06:33:15;;;;;;;4.47;3.10;;;;;;;-0.51;100.00;99562.53;5051392;28;20285;-76
2024/01/05 06:35:41;;;;;;;5.85;2.63;;;;;;;-0.37;100.00;99576.34;5051914;28;20031;-75
2024/01/05 06:38:06;;;;;;;4.72;2.50;;;;;;;-0.51;100.00;99540.72;5051673;28;20038;-75
2024/01/05 06:40:31;;;;;;;11.38;3.17;;;;;;;-0.41;100.00;99567.88;5086322;28;20047;-75
2024/01/05 06:42:57;;;;;;;5.45;2.85;;;;;;;-0.46;100.00;99564.78;5051338;28;20028;-75
2024/01/05 06:45:23;;;;;;;5.75;3.10;;;;;;;-0.68;100.00;99566.47;5068300;28;20031;-75
2024/01/05 06:47:48;;;;;;;;;;;;;;;-0.57;100.00;99617.22;5068484;28;20520;-75
2024/01/05 06:50:14;;;;;;;5.47;3.15;;;;;;;-0.76;100.00;99617.81;5067615;28;19916;-75
2024/01/05 06:52:39;;;;;;;5.32;3.55;;;;;;;-0.65;100.00;99668.47;5046321;28;20506;-75
2024/01/05 06:55:05;;;;;;;;;;;;;;;-0.69;100.00;99668.81;5050214;28;20032;-75
2024/01/05 06:57:31;;;;;;;5.32;2.72;;;;;;;-0.74;100.00;99670.97;5084392;28;20418;-75
2024/01/05 06:59:57;;;;;;;6.38;3.25;;;;;;;-0.91;100.00;99662.59;5085511;28;20039;-75
2024/01/05 07:02:22;;;;;;;6.03;3.05;;;;;;;-0.56;100.00;99745.59;5078181;28;20027;-75
2024/01/05 07:04:48;;;;;;;;;;;;;;;-0.88;100.00;99721.78;5085994;28;20028;-75
2024/01/05 07:07:13;;;;;;;7.07;3.80;;;;;;;-0.83;100.00;99760.75;5051389;28;19912;-76
2024/01/05 07:09:38;;;;;;;6.63;2.97;;;;;;;-1.05;100.00;99751.88;5068180;28;20384;-75
2024/01/05 07:12:04;;;;;;;9.23;3.83;;;;;;;-0.86;100.00;99796.72;5067513;28;20032;-75
2024/01/05 07:14:29;;;;;;;;;;;;;;;-1.01;100.00;99774.25;5085620;28;20060;-76
2024/01/05 07:16:56;;;;;;;;;;;;;;;-1.29;100.00;99750.09;5064469;28;19950;-75
2024/01/05 07:19:21;;;;;;;;;;;;;;;-1.04;100.00;99811.16;5083168;28;19930;-75
2024/01/05 07:21:47;;;;;;;8.90;3.92;;;;;;;-0.99;100.00;99834.41;5080858;28;20347;-75
2024/01/05 07:24:16;;;;;;;8.48;3.10;;;;;;;-1.23;100.00;99802.97;5067285;28;20036;-75
2024/01/05 07:26:44;;;;;;;7.57;3.80;;;;;;;-1.14;100.00;99836.38;5085824;28;20080;-76
2024/01/05 07:29:09;;;;;;;7.28;3.42;;;;;;;-1.11;100.00;99842.19;5085708;28;20075;-75
2024/01/05 07:31:35;;;;;;;;;;;;;;;-0.98;100.00;99860.50;5086119;28;20028;-75
2024/01/05 07:34:01;;;;;;;9.43;4.07;;;;;;;-1.26;100.00;99798.78;5067253;28;20081;-75
2024/01/05 07:36:26;;;;;;;10.48;4.70;;;;;;;-1.03;100.00;99839.06;5085442;28;20301;-75
2024/01/05 07:38:52;;;;;;;16.77;7.28;;;;;;;-1.04;100.00;99829.50;5063011;28;20032;-75
2024/01/05 07:41:18;;;;;;;11.20;4.75;;;;;;;-1.01;100.00;99824.03;5067651;28;20039;-75
2024/01/05 07:43:43;;;;;;;11.52;4.32;;;;;;;-0.97;100.00;99846.44;5050335;28;20035;-75
2024/01/05 07:46:09;;;;;;;;;;;;;;;-1.06;100.00;99834.00;5063680;28;20036;-75
2024/01/05 07:48:34;;;;;;;;;;;;;;;-1.22;100.00;99804.63;5086064;28;20510;-75
2024/01/05 07:51:03;;;;;;;10.07;4.03;;;;;;;-1.19;100.00;99818.34;5059314;28;19959;-75
2024/01/05 07:53:28;;;;;;;7.03;3.17;;;;;;;-1.06;100.00;99831.41;5067405;28;20031;-77
2024/01/05 07:55:54;;;;;;;;;;;;;;;-1.26;100.00;99806.66;5068101;28;20043;-75
2024/01/05 07:58:19;;;;;;;;;;;;;;;-1.29;100.00;99802.47;5067513;28;19912;-75
2024/01/05 08:00:44;;;;;;;6.27;3.00;;;;;;;-1.45;100.00;99780.94;5063409;28;20646;-74
2024/01/05 08:03:11;;;;;;;;;;;;;;;-1.24;100.00;99812.63;5052793;28;20036;-75
2024/01/05 08:05:36;;;;;;;7.95;4.63;;;;;;;-1.30;100.00;99811.25;5071308;28;19915;-74
2024/01/05 08:08:02;;;;;;;9.77;3.78;;;;;;;-1.24;100.00;99824.84;5071151;28;20410;-75
2024/01/05 08:10:27;;;;;;;10.30;4.85;;;;;;;-1.16;100.00;99833.84;5089469;28;20497;-75
2024/01/05 08:12:54;;;;;;;7.18;4.30;;;;;;;-1.17;100.00;99820.84;5088811;28;20039;-75
2024/01/05 08:15:19;;;;;;;9.70;4.68;;;;;;;-1.44;100.00;99773.91;5071023;28;20051;-75
2024/01/05 08:17:45;;;;;;;6.90;3.65;;;;;;;-1.37;100.00;99794.31;5087145;28;20032;-75
2024/01/05 08:20:10;;;;;;;;;;;;;;;-1.31;100.00;99793.06;5071224;28;20139;-75
2024/01/05 08:22:36;;;;;;;9.70;3.40;;;;;;;-1.52;100.00;99780.53;5089364;28;19916;-75
2024/01/05 08:25:03;;;;;;;7.15;3.63;;;;;;;-1.38;100.00;99813.59;5088885;28;20490;-74
2024/01/05 08:27:29;;;;;;;7.85;3.22;;;;;;;-1.52;100.00;99774.47;5071012;28;20028;-75
2024/01/05 08:29:55;;;;;;;;;;;;;;;-1.39;100.00;99817.16;5089181;28;20029;-75
2024/01/05 08:32:20;;;;;;;6.90;3.50;;;;;;;-1.57;100.00;99781.78;5070405;28;19935;-75
2024/01/05 08:34:45;;;;;;;;;;;;;;;-1.24;100.00;99830.09;5064166;28;20880;-75
2024/01/05 08:37:11;;;;;;;;;;;;;;;-1.30;100.00;99803.41;5078645;28;19941;-75
2024/01/05 08:39:39;;;;;;;9.47;3.33;;;;;;;-1.67;100.00;99758.06;5053496;28;19916;-75
2024/01/05 08:42:07;;;;;;;8.30;3.35;;;;;;;-1.77;100.00;99773.56;5053591;28;20047;-76
2024/01/05 08:44:34;;;;;;;7.20;2.55;;;;;;;-1.43;100.00;99836.63;5070333;28;20027;-75
2024/01/05 08:47:00;;;;;;;7.07;3.42;;;;;;;-1.44;100.00;99823.66;5045625;28;20074;-75
2024/01/05 08:49:26;;;;;;;6.07;3.00;;;;;;;-1.64;100.00;99812.81;5088793;28;20055;-75
2024/01/05 08:51:51;;;;;;;;;;;;;;;-1.56;100.00;99838.44;5089259;28;20073;-75
2024/01/05 08:54:17;;;;;;;6.70;3.08;;;;;;;-1.59;100.00;99849.97;5070091;28;19912;-75
2024/01/05 08:56:42;;;;;;;5.82;2.78;;;;;;;-1.58;100.00;99853.44;5053890;28;20079;-75
2024/01/05 08:59:08;;;;;;;5.50;2.65;;;;;;;-1.71;100.00;99816.78;5069868;28;20036;-75
2024/01/05 09:01:33;;;;;;;5.63;2.95;;;;;;;-1.47;100.00;99832.56;5063618;28;20455;-75
2024/01/05 09:03:59;;;;;;;;;;;;;;;-1.71;100.00;99790.63;5053978;28;20039;-75
2024/01/05 09:06:24;;;;;;;4.43;1.95;;;;;;;-1.71;100.00;99778.38;5070488;28;19912;-75
2024/01/05 09:08:49;;;;;;;6.22;2.10;;;;;;;-1.55;100.00;99795.63;5047256;28;20683;-75
2024/01/05 09:11:16;;;;;;;8.32;2.22;;;;;;;-1.50;100.00;99783.03;5044790;28;20044;-75
2024/01/05 09:13:41;;;;;;;4.00;1.77;;;;;;;-1.43;100.00;99792.13;5087998;28;20796;-75
2024/01/05 09:16:07;;;;;;;3.63;1.58;;;;;;;-1.61;100.00;99757.63;5069628;28;20047;-75
2024/01/05 09:18:35;;;;;;;3.70;2.38;;;;;;;-1.56;100.00;99749.44;5070481;28;20077;-75
2024/01/05 09:21:02;;;;;;;3.22;1.70;;;;;;;-1.65;100.00;99719.53;5045157;28;20097;-75
2024/01/05 09:23:27;;;;;;;5.40;2.10;;;;;;;-1.60;100.00;99725.25;5061781;28;20024;-75
2024/01/05 09:25:53;;;;;;;3.45;1.88;;;;;;;-1.51;100.00;99744.72;5088380;28;20040;-75
2024/01/05 09:28:18;;;;;;;;;;;;;;;-1.63;100.00;99728.09;5070549;28;20044;-75
2024/01/05 09:30:43;;;;;;;2.40;1.70;;;;;;;-1.55;100.00;99732.78;5069858;28;19911;-75
2024/01/05 09:33:09;;;;;;;6.10;1.80;;;;;;;-1.53;100.00;99731.72;5069387;28;20056;-75
2024/01/05 09:35:34;;;;;;;;;;;;;;;-1.37;100.00;99736.69;5088191;28;20032;-74
2024/01/05 09:37:59;;;;;;;4.53;1.90;;;;;;;-1.72;100.00;99666.78;5051803;28;19912;-75
2024/01/05 09:40:25;;;;;;;3.90;1.83;;;;;;;-1.34;100.00;99739.09;5087367;28;20285;-75
2024/01/05 09:42:52;;;;;;;3.28;1.70;;;;;;;-1.34;100.00;99748.72;5069677;28;20043;-76
2024/01/05 09:45:21;;;;;;;3.58;2.00;;;;;;;-1.16;100.00;99776.22;5046338;28;20481;-76
2024/01/05 09:47:48;;;;;;;6.30;2.00;;;;;;;-1.14;100.00;99763.00;5054287;28;20039;-75
2024/01/05 09:50:16;;;;;;;4.20;2.60;;;;;;;-1.45;100.00;99714.63;5069820;28;20112;-75
2024/01/05 09:52:42;;;;;;;4.88;2.03;;;;;;;-1.43;100.00;99731.06;5069742;28;20089;-76
2024/01/05 09:55:08;;;;;;;4.20;1.73;;;;;;;-1.46;100.00;99726.88;5069379;28;20492;-76
2024/01/05 09:57:35;;;;;;;4.32;1.80;;;;;;;-1.63;100.00;99701.94;5068950;28;20063;-76
2024/01/05 10:00:03;;;;;;;4.82;2.88;;;;;;;-1.47;100.00;99727.84;5060651;28;20036;-76
2024/01/05 10:02:43;;;;;;;5.00;2.47;;;;;;;-1.54;100.00;99724.00;5069688;28;20043;-76
2024/01/05 10:05:10;;;;;;;7.50;2.55;;;;;;;-1.37;100.00;99749.78;5069113;28;20043;-76
2024/01/05 10:07:46;;;;;;;4.38;2.28;;;;;;;-1.46;100.00;99726.88;5069631;28;20054;-75
2024/01/05 10:10:12;;;;;;;4.95;2.30;;;;;;;-1.41;100.00;99718.72;5069327;28;20039;-77
2024/01/05 10:12:39;;;;;;;3.50;2.15;;;;;;;-1.40;100.00;99715.16;5049115;28;20032;-75
2024/01/05 10:15:06;;;;;;;6.45;2.22;;;;;;;-1.33;100.00;99727.69;5063261;28;20499;-75
2024/01/05 10:17:35;;;;;;;5.38;2.03;;;;;;;-1.46;100.00;99699.88;5087233;28;20055;-76
2024/01/05 10:20:14;;;;;;;4.00;2.00;;;;;;;-1.23;100.00;99719.16;5067651;28;20040;-75
2024/01/05 10:22:40;;;;;;;6.00;1.65;;;;;;;-1.31;100.00;99683.91;5044629;28;20056;-75
2024/01/05 10:25:15;;;;;;;;;;;;;;;-1.61;100.00;99626.75;5063145;28;20040;-76
2024/01/05 10:27:40;;;;;;;;;;;;;;;-1.52;100.00;99614.78;5063999;28;20367;-76
2024/01/05 10:30:06;;;;;;;6.68;1.85;;;;;;;-1.45;100.00;99655.28;5068331;28;19923;-75
2024/01/05 10:32:32;;;;;;;6.30;1.85;;;;;;;-1.57;100.00;99656.16;5068505;28;20032;-76
2024/01/05 10:34:57;;;;;;;3.50;1.60;;;;;;;-1.42;100.00;99675.97;5068190;28;20093;-75
2024/01/05 10:37:22;;;;;;;3.92;1.88;;;;;;;-1.61;100.00;99636.41;5051465;28;20112;-75
2024/01/05 10:39:52;;;;;;;5.63;2.75;;;;;;;-1.56;100.00;99636.91;5086300;28;20111;-75
2024/01/05 10:42:21;;;;;;;2.95;1.67;;;;;;;-1.49;100.00;99649.41;5051564;28;20031;-76
2024/01/05 10:44:50;;;;;;;6.45;2.33;;;;;;;-1.58;100.00;99625.69;5051327;28;20036;-76
2024/01/05 10:47:15;;;;;;;5.47;2.05;;;;;;;-1.21;100.00;99664.88;5067847;28;20036;-75
2024/01/05 10:49:48;;;;;;;4.88;2.22;;;;;;;-1.22;100.00;99640.44;5083709;28;20019;-76
2024/01/05 10:52:15;;;;;;;4.88;2.25;;;;;;;-1.32;100.00;99608.88;5051088;28;20097;-76
2024/01/05 10:54:40;;;;;;;4.40;2.20;;;;;;;-1.49;100.00;99591.00;5067729;28;20081;-76
2024/01/05 10:57:11;;;;;;;3.83;2.05;;;;;;;-1.15;100.00;99640.84;5051276;28;20039;-76
2024/01/05 10:59:36;;;;;;;3.08;2.20;;;;;;;-1.52;100.00;99568.50;5057094;28;20104;-75
2024/01/05 11:02:09;;;;;;;5.97;2.35;;;;;;;-1.25;100.00;99629.38;5044348;28;20557;-76
2024/01/05 11:04:39;;;;;;;6.10;2.65;;;;;;;-1.45;100.00;99587.19;5074347;28;20032;-76
2024/01/05 11:07:05;;;;;;;8.15;2.55;;;;;;;-1.47;100.00;99596.94;5082614;28;20123;-75
2024/01/05 11:09:52;;;;;;;;;;;;;;;-1.50;100.00;99605.00;5062821;28;20477;-76
2024/01/05 11:12:43;;;;;;;5.45;2.30;;;;;;;-1.44;100.00;99656.09;5084390;28;19912;-76
2024/01/05 11:15:25;;;;;;;7.22;2.50;;;;;;;-1.46;100.00;99658.00;5050417;28;20043;-75
2024/01/05 11:18:09;;;;;;;6.60;2.88;;;;;;;-1.45;100.00;99676.22;5051274;28;20092;-75
2024/01/05 11:21:02;;;;;;;7.03;3.40;;;;;;;-1.35;100.00;99715.66;5078278;28;20538;-76
2024/01/05 11:23:29;;;;;;;4.18;2.45;;;;;;;-1.33;100.00;99724.25;5067130;28;20058;-76
2024/01/05 11:25:55;;;;;;;6.68;2.70;;;;;;;-1.38;100.00;99714.09;5051174;28;20475;-74
2024/01/05 11:28:33;;;;;;;;;;;;;;;-1.41;100.00;99710.84;5086060;28;20036;-76
2024/01/05 11:30:59;;;;;;;5.85;2.65;;;;;;;-1.39;100.00;99712.41;5085462;28;19912;-75
2024/01/05 11:33:47;;;;;;;7.30;2.65;;;;;;;-1.28;100.00;99719.50;5085021;28;20111;-75